Central Coast CX #7

Cyclocross: Sunday Oct. 15, 2017 – Schedule
Part of the 2017-18 CCCX Cyclocross Series

Results: Group B

Men B

Place # First Last City Cat Team License Age Laps @ Time Points
1 47 Morgan GERLAK Baltimore, MD 3 Olympic Club 0194574 25 8 @ 00:46:31 50
2 48 Tyler MARCHESANO Sacramento, CA 5 LOW//Factory Racing 0420060 26 8 @ 00:48:55 47
3 2 Matthew WHITBY Stanford, CA 5 0459226 28 8 @ 00:49:06 45
4 100 Liam GIMA-LANGE San Francisco, CA 5 0513121 18 8 @ 00:49:29 44
5 76 Jason PRICE 5 8888302 8 @ 00:50:16 43
6 46 David TRIPIER Los Gatos, CA 3 Menlo Velo 0144645 52 8 @ 00:50:21 42
7 91 Travis ALONGI Gilroy, CA 4 The Fast Forward 0304690 32 8 @ 00:50:43 41
8 102 Christopher ZAHASKY Palo Alto, CA 5 Stanford University 0489589 30 8 @ 00:51:47 40
9 7 Tyler ELLIOTT Oakland, CA 5 King Kog 0541431 30 8 @ 00:51:55 39
10 99 Matthew EVEN Washington, DC 3 Bicycle Pro Shop Off-Road 0247035 41 8 @ 00:52:43 38
11 45 Brian KALCIC Sunnyvale, CA 5 0516782 16 7 @ 00:46:32 37
12 49 Patrick MILLER Morgan Hill, CA 5 0401800 32 7 @ 00:47:19 36
13 96 Travis TUCKER Sebastopol, CA 5 CX Nation 0517678 15 7 @ 00:47:29 35
14 9 Wayne VANAMAN Emeryville, CA 5 King Kog 0468213 34 7 @ 00:48:40 34
15 3 Grant HEURING Fresno, CA 4 ACADEMY 0496677 16 7 @ 00:48:56 33
16 86 Jeff LAI Oakland, CA 5 0542674 29 7 @ 00:49:51 32
17 98 Jason ANDERSON Morgan Hill, CA 5 0497101 20 7 @ 00:50:18 31
DNP 97 Josue ACOSTA East Palo Alto, CA 4 0366197 31 - 1
Field: 18 of 99

Masters Men 35+ B

Place # First Last City Cat Team License Age Laps @ Time Points
1 359 Billy KOSTRIKIN Modesto, CA 5 Highland Bike 0019699 43 8 @ 00:48:42 50
2 318 Matthew KLENE San Francisco, CA 3 0470333 42 8 @ 00:49:44 47
3 311 Adolfo WRIEDT 5 8888210 8 @ 00:50:12 45
4 325 Bernardo TAPIA Redwood City, CA 4 SunPower Racing 0456472 44 8 @ 00:50:13 44
5 333 Martin KOZERA San Carlos, CA 2 Pen Velo Racing/Summit Bicycles 0261903 44 8 @ 00:49:51 43
6 335 Chase LATTA Oakland, CA 5 0524494 35 8 @ 00:52:00 42
7 360 Covey POTTER 5 Caletti 8888608 7 @ 00:47:25 41
8 319 Brett BUTLES 5 8888304 7 @ 00:48:07 40
9 361 Zach SMITH 5 8888705 7 @ 00:50:48 39
10 314 Timothy TURNBULL Castroville, CA 4 Los Gatos Bicycle Racing Club 0309759 52 6 @ 00:52:40 38
Field: 10 of 100

Masters Men 45+ B

Place # First Last City Cat Team License Age Laps @ Time Points
1 616 Scott FREIERMUTH Menlo Park, CA 4 CoreTechs Cycling Team 0059509 49 8 @ 00:50:09 50
2 672 Jim PERREIRA San Jose, CA 5 The Fast Forward 0434736 51 8 @ 00:50:46 47
3 650 Brian GOKEY San Jose, CA 4 Menlo Velo 0392565 45 8 @ 00:51:28 45
4 624 Andrew YEE Mountain View, CA 3 Hup United 0050693 44 8 @ 00:52:00 44
5 602 Scott ZAVACK Morgan Hill, CA 4 0226979 50 8 @ 00:52:13 43
6 654 Michael LOFTESNES Martinez, CA 4 0053118 52 8 @ 00:52:14 42
7 605 Raymond MENDOZA Santa Cruz, CA 4 0024025 52 8 @ 00:52:44 41
8 669 Jeff HANE Sunnyvale, CA 2 Team Roaring Mouse 0014909 53 7 @ 00:46:02 40
9 652 John BONO Santa Cruz, CA 4 0303921 49 7 @ 00:47:10 39
10 615 Michael SCHALLER Campbell, CA 4 0253585 50 7 @ 00:47:12 38
11 674 Marco SOLDANO San Jose, CA 5 0237171 48 7 @ 00:48:09 37
12 659 Darrel BROKESHOULDER 5 8888207 7 @ 00:48:32 36
13 655 Shawn VARNER Templeton, CA 4 ChristianCycling Colorado 0096154 48 7 @ 00:50:20 35
14 606 David O'BRIEN Sunnyvale, CA 4 SunPower Racing 0393237 50 7 @ 00:50:39 34
Field: 14 of 100

Single Speed Men B

Place # First Last City Cat Team License Age Laps @ Time Points
1 201 Jason PRATER Oakland, CA 3 RMRC p/b Turin Bicycles 0244064 34 8 @ 00:50:05 50
2 250 Brian FERRARIO San Jose, CA 3 Menlo Velo 0088248 51 8 @ 00:52:12 47
3 252 Jose FRANCIS 5 Team Crash 8888107 7 @ 00:47:09 45
4 249 John BROOKSHIRE 5 Cosmic Cycles 8888416 7 @ 00:47:10 44
5 202 Kevin PELLEY Salinas, CA 5 0206394 28 7 @ 00:47:31 43
6 225 Neill MCCUMBER 5 8888306 7 @ 00:52:07 42
7 298 Starr WALKER 5 8888704 6 @ 00:46:55 41
DNP 297 McKay KINSEY Fresno, CA 4 ACADEMY 0423654 14 - 1
DNP 299 Carlos BALAM San Francisco, CA 5 0391443 32 - 1
Field: 9 of 100
Table notes: